sensor_id;sensor_type;location;lat;lon;timestamp;temperature;humidity
3727;DHT22;1879;45.876;12.300;2024-03-02T00:00:49;12.60;99.90
3727;DHT22;1879;45.876;12.300;2024-03-02T00:03:17;12.50;99.90
3727;DHT22;1879;45.876;12.300;2024-03-02T00:05:49;12.50;99.90
3727;DHT22;1879;45.876;12.300;2024-03-02T00:08:23;12.40;99.90
3727;DHT22;1879;45.876;12.300;2024-03-02T00:10:50;12.40;99.90
3727;DHT22;1879;45.876;12.300;2024-03-02T00:13:20;12.40;99.90
3727;DHT22;1879;45.876;12.300;2024-03-02T00:15:52;12.30;99.90
3727;DHT22;1879;45.876;12.300;2024-03-02T00:18:20;12.20;99.90
3727;DHT22;1879;45.876;12.300;2024-03-02T00:20:49;12.10;99.90
3727;DHT22;1879;45.876;12.300;2024-03-02T00:23:19;12.00;99.90
3727;DHT22;1879;45.876;12.300;2024-03-02T00:25:48;11.90;99.90
3727;DHT22;1879;45.876;12.300;2024-03-02T00:28:19;11.90;99.90
3727;DHT22;1879;45.876;12.300;2024-03-02T00:31:04;11.80;99.90
3727;DHT22;1879;45.876;12.300;2024-03-02T00:33:33;11.80;99.90
3727;DHT22;1879;45.876;12.300;2024-03-02T00:36:02;11.80;99.90
3727;DHT22;1879;45.876;12.300;2024-03-02T00:38:30;11.80;99.90
3727;DHT22;1879;45.876;12.300;2024-03-02T00:40:59;11.70;99.90
3727;DHT22;1879;45.876;12.300;2024-03-02T00:43:59;11.70;99.90
3727;DHT22;1879;45.876;12.300;2024-03-02T00:46:29;11.70;99.90
3727;DHT22;1879;45.876;12.300;2024-03-02T00:48:57;11.70;99.90
3727;DHT22;1879;45.876;12.300;2024-03-02T00:51:27;11.80;99.90
3727;DHT22;1879;45.876;12.300;2024-03-02T00:53:55;11.80;99.90
3727;DHT22;1879;45.876;12.300;2024-03-02T00:56:23;11.80;99.90
3727;DHT22;1879;45.876;12.300;2024-03-02T00:58:50;11.80;99.90
3727;DHT22;1879;45.876;12.300;2024-03-02T01:01:17;11.90;99.90
3727;DHT22;1879;45.876;12.300;2024-03-02T01:03:45;11.90;99.90
3727;DHT22;1879;45.876;12.300;2024-03-02T01:06:12;11.90;99.90
3727;DHT22;1879;45.876;12.300;2024-03-02T01:08:40;11.80;99.90
3727;DHT22;1879;45.876;12.300;2024-03-02T01:11:08;11.80;99.90
3727;DHT22;1879;45.876;12.300;2024-03-02T01:13:35;11.80;99.90
3727;DHT22;1879;45.876;12.300;2024-03-02T01:16:02;11.80;99.90
3727;DHT22;1879;45.876;12.300;2024-03-02T01:18:29;11.80;99.90
3727;DHT22;1879;45.876;12.300;2024-03-02T01:20:57;11.80;99.90
3727;DHT22;1879;45.876;12.300;2024-03-02T01:23:24;11.80;99.90
3727;DHT22;1879;45.876;12.300;2024-03-02T01:25:52;11.80;99.90
3727;DHT22;1879;45.876;12.300;2024-03-02T01:28:20;11.80;99.90
3727;DHT22;1879;45.876;12.300;2024-03-02T01:30:47;11.80;99.90
3727;DHT22;1879;45.876;12.300;2024-03-02T01:33:14;11.90;99.90
3727;DHT22;1879;45.876;12.300;2024-03-02T01:35:42;11.90;99.90
3727;DHT22;1879;45.876;12.300;2024-03-02T01:38:09;11.90;99.90
3727;DHT22;1879;45.876;12.300;2024-03-02T01:40:36;11.80;99.90
3727;DHT22;1879;45.876;12.300;2024-03-02T01:43:05;11.80;99.90
3727;DHT22;1879;45.876;12.300;2024-03-02T01:45:33;11.80;99.90
3727;DHT22;1879;45.876;12.300;2024-03-02T01:47:59;11.70;99.90
3727;DHT22;1879;45.876;12.300;2024-03-02T01:50:27;11.60;99.90
3727;DHT22;1879;45.876;12.300;2024-03-02T01:52:54;11.60;99.90
3727;DHT22;1879;45.876;12.300;2024-03-02T01:55:21;11.70;99.90
3727;DHT22;1879;45.876;12.300;2024-03-02T01:57:48;11.70;99.90
3727;DHT22;1879;45.876;12.300;2024-03-02T02:00:18;11.70;99.90
3727;DHT22;1879;45.876;12.300;2024-03-02T02:02:45;11.70;99.90
3727;DHT22;1879;45.876;12.300;2024-03-02T02:05:12;11.60;99.90
3727;DHT22;1879;45.876;12.300;2024-03-02T02:07:40;11.60;99.90
3727;DHT22;1879;45.876;12.300;2024-03-02T02:10:08;11.60;99.90
3727;DHT22;1879;45.876;12.300;2024-03-02T02:12:36;11.60;99.90
3727;DHT22;1879;45.876;12.300;2024-03-02T02:15:03;11.60;99.90
3727;DHT22;1879;45.876;12.300;2024-03-02T02:17:32;11.60;99.90
3727;DHT22;1879;45.876;12.300;2024-03-02T02:19:59;11.60;99.90
3727;DHT22;1879;45.876;12.300;2024-03-02T02:22:27;11.60;99.90
3727;DHT22;1879;45.876;12.300;2024-03-02T02:24:54;11.60;99.90
3727;DHT22;1879;45.876;12.300;2024-03-02T02:27:21;11.60;99.90
3727;DHT22;1879;45.876;12.300;2024-03-02T02:29:48;11.70;99.90
3727;DHT22;1879;45.876;12.300;2024-03-02T02:32:15;11.70;99.90
3727;DHT22;1879;45.876;12.300;2024-03-02T02:34:42;11.60;99.90
3727;DHT22;1879;45.876;12.300;2024-03-02T02:37:09;11.70;99.90
3727;DHT22;1879;45.876;12.300;2024-03-02T02:39:38;11.60;99.90
3727;DHT22;1879;45.876;12.300;2024-03-02T02:42:05;11.60;99.90
3727;DHT22;1879;45.876;12.300;2024-03-02T02:44:32;11.60;99.90
3727;DHT22;1879;45.876;12.300;2024-03-02T02:46:59;11.60;99.90
3727;DHT22;1879;45.876;12.300;2024-03-02T02:49:26;11.60;99.90
3727;DHT22;1879;45.876;12.300;2024-03-02T02:51:53;11.50;99.90
3727;DHT22;1879;45.876;12.300;2024-03-02T02:54:20;11.50;99.90
3727;DHT22;1879;45.876;12.300;2024-03-02T02:56:48;11.40;99.90
3727;DHT22;1879;45.876;12.300;2024-03-02T02:59:15;11.50;99.90
3727;DHT22;1879;45.876;12.300;2024-03-02T03:01:42;11.50;99.90
3727;DHT22;1879;45.876;12.300;2024-03-02T03:04:09;11.50;99.90
3727;DHT22;1879;45.876;12.300;2024-03-02T03:06:36;11.40;99.90
3727;DHT22;1879;45.876;12.300;2024-03-02T03:09:03;11.40;99.90
3727;DHT22;1879;45.876;12.300;2024-03-02T03:11:30;11.40;99.90
3727;DHT22;1879;45.876;12.300;2024-03-02T03:13:59;11.30;99.90
3727;DHT22;1879;45.876;12.300;2024-03-02T03:16:27;11.40;99.90
3727;DHT22;1879;45.876;12.300;2024-03-02T03:18:54;11.40;99.90
3727;DHT22;1879;45.876;12.300;2024-03-02T03:21:20;11.40;99.90
3727;DHT22;1879;45.876;12.300;2024-03-02T03:23:47;11.40;99.90
3727;DHT22;1879;45.876;12.300;2024-03-02T03:26:14;11.50;99.90
3727;DHT22;1879;45.876;12.300;2024-03-02T03:28:41;11.40;99.90
3727;DHT22;1879;45.876;12.300;2024-03-02T03:31:10;11.40;99.90
3727;DHT22;1879;45.876;12.300;2024-03-02T03:33:37;11.50;99.90
3727;DHT22;1879;45.876;12.300;2024-03-02T03:36:05;11.50;99.90
3727;DHT22;1879;45.876;12.300;2024-03-02T03:38:31;11.40;99.90
3727;DHT22;1879;45.876;12.300;2024-03-02T03:40:58;11.40;99.90
3727;DHT22;1879;45.876;12.300;2024-03-02T03:43:25;11.40;99.90
3727;DHT22;1879;45.876;12.300;2024-03-02T03:45:52;11.40;99.90
3727;DHT22;1879;45.876;12.300;2024-03-02T03:48:20;11.40;99.90
3727;DHT22;1879;45.876;12.300;2024-03-02T03:50:47;11.40;99.90
3727;DHT22;1879;45.876;12.300;2024-03-02T03:53:14;11.40;99.90
3727;DHT22;1879;45.876;12.300;2024-03-02T03:55:41;11.40;99.90
3727;DHT22;1879;45.876;12.300;2024-03-02T03:58:08;11.40;99.90
3727;DHT22;1879;45.876;12.300;2024-03-02T04:00:35;11.30;99.90
3727;DHT22;1879;45.876;12.300;2024-03-02T04:03:02;11.40;99.90
3727;DHT22;1879;45.876;12.300;2024-03-02T04:05:31;11.40;99.90
3727;DHT22;1879;45.876;12.300;2024-03-02T04:07:57;11.40;99.90
3727;DHT22;1879;45.876;12.300;2024-03-02T04:10:25;11.40;99.90
3727;DHT22;1879;45.876;12.300;2024-03-02T04:12:52;11.40;99.90
3727;DHT22;1879;45.876;12.300;2024-03-02T04:15:19;11.40;99.90
3727;DHT22;1879;45.876;12.300;2024-03-02T04:17:46;11.40;99.90
3727;DHT22;1879;45.876;12.300;2024-03-02T04:20:13;11.40;99.90
3727;DHT22;1879;45.876;12.300;2024-03-02T04:22:41;11.40;99.90
3727;DHT22;1879;45.876;12.300;2024-03-02T04:25:08;11.40;99.90
3727;DHT22;1879;45.876;12.300;2024-03-02T04:27:36;11.30;99.90
3727;DHT22;1879;45.876;12.300;2024-03-02T04:30:04;11.30;99.90
3727;DHT22;1879;45.876;12.300;2024-03-02T04:32:32;11.30;99.90
3727;DHT22;1879;45.876;12.300;2024-03-02T04:34:59;11.20;99.90
3727;DHT22;1879;45.876;12.300;2024-03-02T04:37:26;11.30;99.90
3727;DHT22;1879;45.876;12.300;2024-03-02T04:39:54;11.30;99.90
3727;DHT22;1879;45.876;12.300;2024-03-02T04:42:21;11.30;99.90
3727;DHT22;1879;45.876;12.300;2024-03-02T04:44:48;11.30;99.90
3727;DHT22;1879;45.876;12.300;2024-03-02T04:47:15;11.30;99.90
3727;DHT22;1879;45.876;12.300;2024-03-02T04:49:42;11.30;99.90
3727;DHT22;1879;45.876;12.300;2024-03-02T04:52:09;11.30;99.90
3727;DHT22;1879;45.876;12.300;2024-03-02T04:54:36;11.30;99.90
3727;DHT22;1879;45.876;12.300;2024-03-02T04:57:24;11.30;99.90
3727;DHT22;1879;45.876;12.300;2024-03-02T04:59:51;11.30;99.90
3727;DHT22;1879;45.876;12.300;2024-03-02T05:02:18;11.30;99.90
3727;DHT22;1879;45.876;12.300;2024-03-02T05:04:45;11.30;99.90
3727;DHT22;1879;45.876;12.300;2024-03-02T05:07:13;11.30;99.90
3727;DHT22;1879;45.876;12.300;2024-03-02T05:09:40;11.30;99.90
3727;DHT22;1879;45.876;12.300;2024-03-02T05:12:08;11.30;99.90
3727;DHT22;1879;45.876;12.300;2024-03-02T05:14:50;11.30;99.90
3727;DHT22;1879;45.876;12.300;2024-03-02T05:17:17;11.20;99.90
3727;DHT22;1879;45.876;12.300;2024-03-02T05:19:43;11.30;99.90
3727;DHT22;1879;45.876;12.300;2024-03-02T05:22:10;11.20;99.90
3727;DHT22;1879;45.876;12.300;2024-03-02T05:24:37;11.30;99.90
3727;DHT22;1879;45.876;12.300;2024-03-02T05:27:04;11.30;99.90
3727;DHT22;1879;45.876;12.300;2024-03-02T05:29:33;11.30;99.90
3727;DHT22;1879;45.876;12.300;2024-03-02T05:32:01;11.20;99.90
3727;DHT22;1879;45.876;12.300;2024-03-02T05:34:28;11.30;99.90
3727;DHT22;1879;45.876;12.300;2024-03-02T05:36:56;11.20;99.90
3727;DHT22;1879;45.876;12.300;2024-03-02T05:39:24;11.20;99.90
3727;DHT22;1879;45.876;12.300;2024-03-02T05:41:51;11.30;99.90
3727;DHT22;1879;45.876;12.300;2024-03-02T05:44:18;11.30;99.90
3727;DHT22;1879;45.876;12.300;2024-03-02T05:46:45;11.30;99.90
3727;DHT22;1879;45.876;12.300;2024-03-02T05:49:13;11.30;99.90
3727;DHT22;1879;45.876;12.300;2024-03-02T05:51:40;11.30;99.90
3727;DHT22;1879;45.876;12.300;2024-03-02T05:54:07;11.30;99.90
3727;DHT22;1879;45.876;12.300;2024-03-02T05:56:35;11.40;99.90
3727;DHT22;1879;45.876;12.300;2024-03-02T05:59:01;11.40;99.90
3727;DHT22;1879;45.876;12.300;2024-03-02T06:01:38;11.40;99.90
3727;DHT22;1879;45.876;12.300;2024-03-02T06:04:05;11.40;99.90
3727;DHT22;1879;45.876;12.300;2024-03-02T06:06:33;11.50;99.90
3727;DHT22;1879;45.876;12.300;2024-03-02T06:09:00;11.50;99.90
3727;DHT22;1879;45.876;12.300;2024-03-02T06:11:28;11.50;99.90
3727;DHT22;1879;45.876;12.300;2024-03-02T06:13:55;11.60;99.90
3727;DHT22;1879;45.876;12.300;2024-03-02T06:16:22;11.50;99.90
3727;DHT22;1879;45.876;12.300;2024-03-02T06:18:49;11.60;99.90
3727;DHT22;1879;45.876;12.300;2024-03-02T06:21:16;11.60;99.90
3727;DHT22;1879;45.876;12.300;2024-03-02T06:23:45;11.60;99.90
3727;DHT22;1879;45.876;12.300;2024-03-02T06:26:12;11.60;99.90
3727;DHT22;1879;45.876;12.300;2024-03-02T06:28:39;11.60;99.90
3727;DHT22;1879;45.876;12.300;2024-03-02T06:31:06;11.60;99.90
3727;DHT22;1879;45.876;12.300;2024-03-02T06:33:33;11.70;99.90
3727;DHT22;1879;45.876;12.300;2024-03-02T06:36:00;11.60;99.90
3727;DHT22;1879;45.876;12.300;2024-03-02T06:38:27;11.60;99.90
3727;DHT22;1879;45.876;12.300;2024-03-02T06:40:55;11.60;99.90
3727;DHT22;1879;45.876;12.300;2024-03-02T06:43:22;11.70;99.90
3727;DHT22;1879;45.876;12.300;2024-03-02T06:45:49;11.60;99.90
3727;DHT22;1879;45.876;12.300;2024-03-02T06:48:16;11.60;99.90
3727;DHT22;1879;45.876;12.300;2024-03-02T06:50:45;11.60;99.90
3727;DHT22;1879;45.876;12.300;2024-03-02T06:53:13;11.60;99.90
3727;DHT22;1879;45.876;12.300;2024-03-02T06:55:43;11.60;99.90
3727;DHT22;1879;45.876;12.300;2024-03-02T06:58:12;11.60;99.90
3727;DHT22;1879;45.876;12.300;2024-03-02T07:00:38;11.70;99.90
3727;DHT22;1879;45.876;12.300;2024-03-02T07:03:05;11.80;99.90
3727;DHT22;1879;45.876;12.300;2024-03-02T07:05:32;11.90;99.90
3727;DHT22;1879;45.876;12.300;2024-03-02T07:07:59;11.90;99.90
3727;DHT22;1879;45.876;12.300;2024-03-02T07:10:27;12.00;99.90
3727;DHT22;1879;45.876;12.300;2024-03-02T07:12:54;12.00;99.90
3727;DHT22;1879;45.876;12.300;2024-03-02T07:15:22;12.10;99.90
3727;DHT22;1879;45.876;12.300;2024-03-02T07:18:08;12.10;99.90
3727;DHT22;1879;45.876;12.300;2024-03-02T07:20:35;12.20;99.90
3727;DHT22;1879;45.876;12.300;2024-03-02T07:23:04;12.30;99.90
3727;DHT22;1879;45.876;12.300;2024-03-02T07:25:31;12.40;99.90
3727;DHT22;1879;45.876;12.300;2024-03-02T07:27:58;12.50;99.90
3727;DHT22;1879;45.876;12.300;2024-03-02T07:30:27;12.60;99.90
3727;DHT22;1879;45.876;12.300;2024-03-02T07:32:54;12.60;99.90
3727;DHT22;1879;45.876;12.300;2024-03-02T07:35:20;12.70;99.90
3727;DHT22;1879;45.876;12.300;2024-03-02T07:37:52;12.80;99.90
3727;DHT22;1879;45.876;12.300;2024-03-02T07:40:19;12.90;99.90
3727;DHT22;1879;45.876;12.300;2024-03-02T07:42:46;12.90;99.90
3727;DHT22;1879;45.876;12.300;2024-03-02T07:45:13;12.90;99.90
3727;DHT22;1879;45.876;12.300;2024-03-02T07:47:41;12.90;99.90
3727;DHT22;1879;45.876;12.300;2024-03-02T07:50:09;12.90;99.90
3727;DHT22;1879;45.876;12.300;2024-03-02T07:52:36;12.90;99.90
3727;DHT22;1879;45.876;12.300;2024-03-02T07:55:03;13.00;99.90
3727;DHT22;1879;45.876;12.300;2024-03-02T07:57:31;13.10;99.90
3727;DHT22;1879;45.876;12.300;2024-03-02T07:59:58;13.10;99.90
3727;DHT22;1879;45.876;12.300;2024-03-02T08:02:25;13.20;99.90
3727;DHT22;1879;45.876;12.300;2024-03-02T08:04:54;13.30;99.90
3727;DHT22;1879;45.876;12.300;2024-03-02T08:07:26;13.40;99.90
3727;DHT22;1879;45.876;12.300;2024-03-02T08:09:53;13.50;99.90
3727;DHT22;1879;45.876;12.300;2024-03-02T08:12:20;13.60;99.90
3727;DHT22;1879;45.876;12.300;2024-03-02T08:14:49;13.70;99.90
3727;DHT22;1879;45.876;12.300;2024-03-02T08:17:16;13.70;99.90
3727;DHT22;1879;45.876;12.300;2024-03-02T08:19:43;13.80;99.90
3727;DHT22;1879;45.876;12.300;2024-03-02T08:22:12;13.80;99.90
3727;DHT22;1879;45.876;12.300;2024-03-02T08:24:39;14.00;99.90
3727;DHT22;1879;45.876;12.300;2024-03-02T08:27:06;14.10;99.90
3727;DHT22;1879;45.876;12.300;2024-03-02T08:29:33;14.30;99.90
3727;DHT22;1879;45.876;12.300;2024-03-02T08:31:59;14.40;99.90
3727;DHT22;1879;45.876;12.300;2024-03-02T08:34:26;14.50;99.90
3727;DHT22;1879;45.876;12.300;2024-03-02T08:36:53;14.50;99.90
3727;DHT22;1879;45.876;12.300;2024-03-02T08:39:22;14.50;99.90
3727;DHT22;1879;45.876;12.300;2024-03-02T08:41:48;14.50;99.90
3727;DHT22;1879;45.876;12.300;2024-03-02T08:44:16;14.40;99.90
3727;DHT22;1879;45.876;12.300;2024-03-02T08:46:44;14.40;99.90
3727;DHT22;1879;45.876;12.300;2024-03-02T08:49:11;14.30;99.90
3727;DHT22;1879;45.876;12.300;2024-03-02T08:51:38;14.20;99.90
3727;DHT22;1879;45.876;12.300;2024-03-02T08:54:05;14.20;99.90
3727;DHT22;1879;45.876;12.300;2024-03-02T08:56:33;14.10;99.90
3727;DHT22;1879;45.876;12.300;2024-03-02T08:59:00;14.10;99.90
3727;DHT22;1879;45.876;12.300;2024-03-02T09:01:27;14.10;99.90
3727;DHT22;1879;45.876;12.300;2024-03-02T09:03:54;14.00;99.90
3727;DHT22;1879;45.876;12.300;2024-03-02T09:06:21;14.00;99.90
3727;DHT22;1879;45.876;12.300;2024-03-02T09:08:48;14.00;99.90
3727;DHT22;1879;45.876;12.300;2024-03-02T09:11:17;14.00;99.90
3727;DHT22;1879;45.876;12.300;2024-03-02T09:13:45;13.90;99.90
3727;DHT22;1879;45.876;12.300;2024-03-02T09:16:12;13.90;99.90
3727;DHT22;1879;45.876;12.300;2024-03-02T09:18:39;13.90;99.90
3727;DHT22;1879;45.876;12.300;2024-03-02T09:21:06;14.00;99.90
3727;DHT22;1879;45.876;12.300;2024-03-02T09:23:33;14.00;99.90
3727;DHT22;1879;45.876;12.300;2024-03-02T09:26:00;14.10;99.90
3727;DHT22;1879;45.876;12.300;2024-03-02T09:28:28;14.20;99.90
3727;DHT22;1879;45.876;12.300;2024-03-02T09:30:57;14.30;99.90
3727;DHT22;1879;45.876;12.300;2024-03-02T09:33:23;14.40;99.90
3727;DHT22;1879;45.876;12.300;2024-03-02T09:35:50;14.40;99.90
3727;DHT22;1879;45.876;12.300;2024-03-02T09:38:17;14.50;99.90
3727;DHT22;1879;45.876;12.300;2024-03-02T09:40:45;14.50;99.90
3727;DHT22;1879;45.876;12.300;2024-03-02T09:43:12;14.60;99.90
3727;DHT22;1879;45.876;12.300;2024-03-02T09:45:40;14.70;99.90
3727;DHT22;1879;45.876;12.300;2024-03-02T09:48:09;14.70;99.90
3727;DHT22;1879;45.876;12.300;2024-03-02T09:50:35;14.80;99.90
3727;DHT22;1879;45.876;12.300;2024-03-02T09:53:03;14.80;99.90
3727;DHT22;1879;45.876;12.300;2024-03-02T09:55:30;14.90;99.90
3727;DHT22;1879;45.876;12.300;2024-03-02T09:57:57;14.90;99.90
3727;DHT22;1879;45.876;12.300;2024-03-02T10:00:24;15.00;99.90
3727;DHT22;1879;45.876;12.300;2024-03-02T10:02:51;15.10;99.90
3727;DHT22;1879;45.876;12.300;2024-03-02T10:05:26;15.10;99.90
3727;DHT22;1879;45.876;12.300;2024-03-02T10:08:00;15.10;99.90
3727;DHT22;1879;45.876;12.300;2024-03-02T10:10:35;15.10;99.90
3727;DHT22;1879;45.876;12.300;2024-03-02T10:13:06;15.00;99.90
3727;DHT22;1879;45.876;12.300;2024-03-02T10:15:34;14.90;99.90
3727;DHT22;1879;45.876;12.300;2024-03-02T10:18:01;14.90;99.90
3727;DHT22;1879;45.876;12.300;2024-03-02T10:20:30;14.80;99.90
3727;DHT22;1879;45.876;12.300;2024-03-02T10:23:10;14.80;99.90
3727;DHT22;1879;45.876;12.300;2024-03-02T10:25:37;14.70;99.90
3727;DHT22;1879;45.876;12.300;2024-03-02T10:28:04;14.70;99.90
3727;DHT22;1879;45.876;12.300;2024-03-02T10:30:32;14.80;99.90
3727;DHT22;1879;45.876;12.300;2024-03-02T10:33:00;14.80;99.90
3727;DHT22;1879;45.876;12.300;2024-03-02T10:35:27;14.80;99.90
3727;DHT22;1879;45.876;12.300;2024-03-02T10:37:58;14.80;99.90
3727;DHT22;1879;45.876;12.300;2024-03-02T10:40:26;14.70;99.90
3727;DHT22;1879;45.876;12.300;2024-03-02T10:42:53;14.70;99.90
3727;DHT22;1879;45.876;12.300;2024-03-02T10:45:21;14.70;99.90
3727;DHT22;1879;45.876;12.300;2024-03-02T10:47:49;14.60;99.90
3727;DHT22;1879;45.876;12.300;2024-03-02T10:50:17;14.60;99.90
3727;DHT22;1879;45.876;12.300;2024-03-02T10:52:44;14.50;99.90
3727;DHT22;1879;45.876;12.300;2024-03-02T10:55:13;14.50;99.90
3727;DHT22;1879;45.876;12.300;2024-03-02T10:57:50;14.50;99.90
3727;DHT22;1879;45.876;12.300;2024-03-02T11:00:19;14.50;99.90
3727;DHT22;1879;45.876;12.300;2024-03-02T11:02:52;14.50;99.90
3727;DHT22;1879;45.876;12.300;2024-03-02T11:05:26;14.60;99.90
3727;DHT22;1879;45.876;12.300;2024-03-02T11:07:57;14.60;99.90
3727;DHT22;1879;45.876;12.300;2024-03-02T11:10:25;14.50;99.90
3727;DHT22;1879;45.876;12.300;2024-03-02T11:12:58;14.50;99.90
3727;DHT22;1879;45.876;12.300;2024-03-02T11:15:27;14.60;99.90
3727;DHT22;1879;45.876;12.300;2024-03-02T11:17:55;14.60;99.90
3727;DHT22;1879;45.876;12.300;2024-03-02T11:20:23;14.60;99.90
3727;DHT22;1879;45.876;12.300;2024-03-02T11:22:50;14.50;99.90
3727;DHT22;1879;45.876;12.300;2024-03-02T11:25:25;14.60;99.90
3727;DHT22;1879;45.876;12.300;2024-03-02T11:28:03;14.60;99.90
3727;DHT22;1879;45.876;12.300;2024-03-02T11:30:49;14.60;99.90
3727;DHT22;1879;45.876;12.300;2024-03-02T11:33:25;14.60;99.90
3727;DHT22;1879;45.876;12.300;2024-03-02T11:35:56;14.60;99.90
3727;DHT22;1879;45.876;12.300;2024-03-02T11:38:24;14.50;99.90
3727;DHT22;1879;45.876;12.300;2024-03-02T11:40:55;14.50;99.90
3727;DHT22;1879;45.876;12.300;2024-03-02T11:43:22;14.50;99.90
3727;DHT22;1879;45.876;12.300;2024-03-02T11:45:56;14.50;99.90
3727;DHT22;1879;45.876;12.300;2024-03-02T11:48:25;14.60;99.90
3727;DHT22;1879;45.876;12.300;2024-03-02T11:50:52;14.60;99.90
3727;DHT22;1879;45.876;12.300;2024-03-02T11:53:20;14.60;99.90
3727;DHT22;1879;45.876;12.300;2024-03-02T11:55:47;14.60;99.90
3727;DHT22;1879;45.876;12.300;2024-03-02T11:58:17;14.60;99.90
3727;DHT22;1879;45.876;12.300;2024-03-02T12:00:46;14.70;99.90
3727;DHT22;1879;45.876;12.300;2024-03-02T12:03:14;14.70;99.90
3727;DHT22;1879;45.876;12.300;2024-03-02T12:05:42;14.80;99.90
3727;DHT22;1879;45.876;12.300;2024-03-02T12:08:11;14.90;99.90
3727;DHT22;1879;45.876;12.300;2024-03-02T12:10:37;15.00;99.90
3727;DHT22;1879;45.876;12.300;2024-03-02T12:13:06;15.10;99.90
3727;DHT22;1879;45.876;12.300;2024-03-02T12:15:37;15.10;99.90
3727;DHT22;1879;45.876;12.300;2024-03-02T12:18:05;15.20;99.90
3727;DHT22;1879;45.876;12.300;2024-03-02T12:20:33;15.20;99.90
3727;DHT22;1879;45.876;12.300;2024-03-02T12:23:01;15.30;99.90
3727;DHT22;1879;45.876;12.300;2024-03-02T12:25:31;15.30;99.90
3727;DHT22;1879;45.876;12.300;2024-03-02T12:28:00;15.30;99.90
3727;DHT22;1879;45.876;12.300;2024-03-02T12:30:29;15.30;99.90
3727;DHT22;1879;45.876;12.300;2024-03-02T12:32:58;15.30;99.90
3727;DHT22;1879;45.876;12.300;2024-03-02T12:35:25;15.20;99.90
3727;DHT22;1879;45.876;12.300;2024-03-02T12:37:52;15.10;99.90
3727;DHT22;1879;45.876;12.300;2024-03-02T12:40:21;15.00;99.90
3727;DHT22;1879;45.876;12.300;2024-03-02T12:42:49;15.10;99.90
3727;DHT22;1879;45.876;12.300;2024-03-02T12:45:16;15.20;99.90
3727;DHT22;1879;45.876;12.300;2024-03-02T12:47:49;15.40;99.90
3727;DHT22;1879;45.876;12.300;2024-03-02T12:50:17;15.40;99.90
3727;DHT22;1879;45.876;12.300;2024-03-02T12:52:51;15.50;99.90
3727;DHT22;1879;45.876;12.300;2024-03-02T12:55:19;15.60;99.90
3727;DHT22;1879;45.876;12.300;2024-03-02T12:57:46;15.60;99.90
3727;DHT22;1879;45.876;12.300;2024-03-02T13:00:13;15.70;99.90
3727;DHT22;1879;45.876;12.300;2024-03-02T13:02:41;15.80;99.90
3727;DHT22;1879;45.876;12.300;2024-03-02T13:05:08;15.80;99.90
3727;DHT22;1879;45.876;12.300;2024-03-02T13:07:38;15.80;99.90
3727;DHT22;1879;45.876;12.300;2024-03-02T13:10:07;15.70;99.90
3727;DHT22;1879;45.876;12.300;2024-03-02T13:12:35;15.60;99.90
3727;DHT22;1879;45.876;12.300;2024-03-02T13:15:04;15.50;99.90
3727;DHT22;1879;45.876;12.300;2024-03-02T13:17:31;15.50;99.90
3727;DHT22;1879;45.876;12.300;2024-03-02T13:20:00;15.40;99.90
3727;DHT22;1879;45.876;12.300;2024-03-02T13:22:29;15.40;99.90
3727;DHT22;1879;45.876;12.300;2024-03-02T13:24:57;15.40;99.90
3727;DHT22;1879;45.876;12.300;2024-03-02T13:27:25;15.30;99.90
3727;DHT22;1879;45.876;12.300;2024-03-02T13:29:52;15.30;99.90
3727;DHT22;1879;45.876;12.300;2024-03-02T13:32:20;15.30;99.90
3727;DHT22;1879;45.876;12.300;2024-03-02T13:34:50;15.30;99.90
3727;DHT22;1879;45.876;12.300;2024-03-02T13:37:17;15.30;99.90
3727;DHT22;1879;45.876;12.300;2024-03-02T13:39:44;15.30;99.90
3727;DHT22;1879;45.876;12.300;2024-03-02T13:42:13;15.30;99.90
3727;DHT22;1879;45.876;12.300;2024-03-02T13:44:41;15.30;99.90
3727;DHT22;1879;45.876;12.300;2024-03-02T13:47:11;15.20;99.90
3727;DHT22;1879;45.876;12.300;2024-03-02T13:49:38;15.30;99.90
3727;DHT22;1879;45.876;12.300;2024-03-02T13:52:09;15.30;99.90
3727;DHT22;1879;45.876;12.300;2024-03-02T13:54:40;15.20;99.90
3727;DHT22;1879;45.876;12.300;2024-03-02T13:57:08;15.20;99.90
3727;DHT22;1879;45.876;12.300;2024-03-02T13:59:37;15.20;99.90
3727;DHT22;1879;45.876;12.300;2024-03-02T14:02:04;15.30;99.90
3727;DHT22;1879;45.876;12.300;2024-03-02T14:04:32;15.40;99.90
3727;DHT22;1879;45.876;12.300;2024-03-02T14:07:00;15.50;99.90
3727;DHT22;1879;45.876;12.300;2024-03-02T14:09:27;15.50;99.90
3727;DHT22;1879;45.876;12.300;2024-03-02T14:11:54;15.50;99.90
3727;DHT22;1879;45.876;12.300;2024-03-02T14:14:21;15.40;99.90
3727;DHT22;1879;45.876;12.300;2024-03-02T14:16:50;15.30;99.90
3727;DHT22;1879;45.876;12.300;2024-03-02T14:19:17;15.30;99.90
3727;DHT22;1879;45.876;12.300;2024-03-02T14:21:44;15.10;99.90
3727;DHT22;1879;45.876;12.300;2024-03-02T14:24:11;15.10;99.90
3727;DHT22;1879;45.876;12.300;2024-03-02T14:26:38;15.00;99.90
3727;DHT22;1879;45.876;12.300;2024-03-02T14:29:05;14.90;99.90
3727;DHT22;1879;45.876;12.300;2024-03-02T14:31:32;14.90;99.90
3727;DHT22;1879;45.876;12.300;2024-03-02T14:34:00;14.90;99.90
3727;DHT22;1879;45.876;12.300;2024-03-02T14:36:28;14.90;99.90
3727;DHT22;1879;45.876;12.300;2024-03-02T14:38:55;15.00;99.90
3727;DHT22;1879;45.876;12.300;2024-03-02T14:41:22;15.20;99.90
3727;DHT22;1879;45.876;12.300;2024-03-02T14:43:50;15.30;99.90
3727;DHT22;1879;45.876;12.300;2024-03-02T14:46:17;15.50;99.90
3727;DHT22;1879;45.876;12.300;2024-03-02T14:48:46;15.60;99.90
3727;DHT22;1879;45.876;12.300;2024-03-02T14:51:14;15.70;99.90
3727;DHT22;1879;45.876;12.300;2024-03-02T14:53:41;15.60;99.90
3727;DHT22;1879;45.876;12.300;2024-03-02T14:56:08;15.50;99.90
3727;DHT22;1879;45.876;12.300;2024-03-02T14:58:35;15.30;99.90
3727;DHT22;1879;45.876;12.300;2024-03-02T15:01:03;15.10;99.90
3727;DHT22;1879;45.876;12.300;2024-03-02T15:03:31;15.00;99.90
3727;DHT22;1879;45.876;12.300;2024-03-02T15:05:58;14.90;99.90
3727;DHT22;1879;45.876;12.300;2024-03-02T15:08:27;14.80;99.90
3727;DHT22;1879;45.876;12.300;2024-03-02T15:10:54;14.70;99.90
3727;DHT22;1879;45.876;12.300;2024-03-02T15:13:23;14.70;99.90
3727;DHT22;1879;45.876;12.300;2024-03-02T15:15:51;14.70;99.90
3727;DHT22;1879;45.876;12.300;2024-03-02T15:18:18;14.70;99.90
3727;DHT22;1879;45.876;12.300;2024-03-02T15:20:45;14.80;99.90
3727;DHT22;1879;45.876;12.300;2024-03-02T15:23:12;14.70;99.90
3727;DHT22;1879;45.876;12.300;2024-03-02T15:25:40;14.70;99.90
3727;DHT22;1879;45.876;12.300;2024-03-02T15:28:07;14.60;99.90
3727;DHT22;1879;45.876;12.300;2024-03-02T15:30:34;14.60;99.90
3727;DHT22;1879;45.876;12.300;2024-03-02T15:33:02;14.50;99.90
3727;DHT22;1879;45.876;12.300;2024-03-02T15:35:29;14.50;99.90
3727;DHT22;1879;45.876;12.300;2024-03-02T15:37:56;14.50;99.90
3727;DHT22;1879;45.876;12.300;2024-03-02T15:40:22;14.40;99.90
3727;DHT22;1879;45.876;12.300;2024-03-02T15:42:51;14.30;99.90
3727;DHT22;1879;45.876;12.300;2024-03-02T15:45:18;14.30;99.90
3727;DHT22;1879;45.876;12.300;2024-03-02T15:47:45;14.20;99.90
3727;DHT22;1879;45.876;12.300;2024-03-02T15:50:12;14.20;99.90